sensor_id;sensor_type;location;lat;lon;timestamp;pressure;altitude;pressure_sealevel;temperature;humidity
50852;BME280;43953;45.508;-122.806;2023-05-11T00:00:31;100673.06;;;26.27;27.25
50852;BME280;43953;45.508;-122.806;2023-05-11T00:01:04;100669.97;;;26.28;27.31
50852;BME280;43953;45.508;-122.806;2023-05-11T00:01:36;100677.47;;;26.28;27.07
50852;BME280;43953;45.508;-122.806;2023-05-11T00:02:07;100675.50;;;26.28;26.85
50852;BME280;43953;45.508;-122.806;2023-05-11T00:02:39;100676.66;;;26.27;26.64
50852;BME280;43953;45.508;-122.806;2023-05-11T00:03:11;100671.59;;;26.29;26.97
50852;BME280;43953;45.508;-122.806;2023-05-11T00:03:43;100670.78;;;26.29;26.51
50852;BME280;43953;45.508;-122.806;2023-05-11T00:04:14;100676.31;;;26.29;26.38
50852;BME280;43953;45.508;-122.806;2023-05-11T00:04:46;100673.25;;;26.30;26.15
50852;BME280;43953;45.508;-122.806;2023-05-11T00:05:18;100673.25;;;26.30;26.38
50852;BME280;43953;45.508;-122.806;2023-05-11T00:05:49;100674.06;;;26.31;26.42
50852;BME280;43953;45.508;-122.806;2023-05-11T00:06:21;100673.75;;;26.32;26.35
50852;BME280;43953;45.508;-122.806;2023-05-11T00:06:54;100676.53;;;26.32;26.30
50852;BME280;43953;45.508;-122.806;2023-05-11T00:07:26;100669.84;;;26.33;26.35
50852;BME280;43953;45.508;-122.806;2023-05-11T00:07:58;100674.25;;;26.35;26.84
50852;BME280;43953;45.508;-122.806;2023-05-11T00:08:30;100666.28;;;26.33;27.08
50852;BME280;43953;45.508;-122.806;2023-05-11T00:09:01;100674.56;;;26.33;27.15
50852;BME280;43953;45.508;-122.806;2023-05-11T00:09:33;100665.47;;;26.32;27.37
50852;BME280;43953;45.508;-122.806;2023-05-11T00:10:06;100665.47;;;26.32;26.96
50852;BME280;43953;45.508;-122.806;2023-05-11T00:10:38;100668.25;;;26.32;26.78
50852;BME280;43953;45.508;-122.806;2023-05-11T00:11:09;100670.50;;;26.30;26.70
50852;BME280;43953;45.508;-122.806;2023-05-11T00:11:41;100672.13;;;26.31;26.35
50852;BME280;43953;45.508;-122.806;2023-05-11T00:12:13;100670.50;;;26.30;26.49
50852;BME280;43953;45.508;-122.806;2023-05-11T00:12:45;100666.94;;;26.30;26.55
50852;BME280;43953;45.508;-122.806;2023-05-11T00:13:16;100667.72;;;26.30;26.21
50852;BME280;43953;45.508;-122.806;2023-05-11T00:13:48;100666.09;;;26.29;26.29
50852;BME280;43953;45.508;-122.806;2023-05-11T00:14:20;100670.78;;;26.29;26.49
50852;BME280;43953;45.508;-122.806;2023-05-11T00:14:52;100666.09;;;26.29;26.73
50852;BME280;43953;45.508;-122.806;2023-05-11T00:15:23;100669.97;;;26.28;26.56
50852;BME280;43953;45.508;-122.806;2023-05-11T00:15:56;100662.50;;;26.29;27.58
50852;BME280;43953;45.508;-122.806;2023-05-11T00:16:28;100660.56;;;26.29;26.35
50852;BME280;43953;45.508;-122.806;2023-05-11T00:16:59;100661.19;;;26.26;26.21
50852;BME280;43953;45.508;-122.806;2023-05-11T00:17:31;100663.47;;;26.24;25.89
50852;BME280;43953;45.508;-122.806;2023-05-11T00:18:03;100668.19;;;26.24;26.05
50852;BME280;43953;45.508;-122.806;2023-05-11T00:18:34;100659.06;;;26.23;26.51
50852;BME280;43953;45.508;-122.806;2023-05-11T00:19:06;100660.72;;;26.24;26.50
50852;BME280;43953;45.508;-122.806;2023-05-11T00:19:38;100666.25;;;26.24;27.06
50852;BME280;43953;45.508;-122.806;2023-05-11T00:20:10;100663.47;;;26.24;27.28
50852;BME280;43953;45.508;-122.806;2023-05-11T00:20:41;100660.72;;;26.24;27.53
50852;BME280;43953;45.508;-122.806;2023-05-11T00:21:13;100659.56;;;26.25;27.18
50852;BME280;43953;45.508;-122.806;2023-05-11T00:21:45;100661.53;;;26.25;26.93
50852;BME280;43953;45.508;-122.806;2023-05-11T00:22:17;100663.47;;;26.24;26.36
50852;BME280;43953;45.508;-122.806;2023-05-11T00:22:48;100662.66;;;26.24;26.59
50852;BME280;43953;45.508;-122.806;2023-05-11T00:23:20;100661.03;;;26.23;25.79
50852;BME280;43953;45.508;-122.806;2023-05-11T00:23:51;100663.78;;;26.23;26.08
50852;BME280;43953;45.508;-122.806;2023-05-11T00:24:24;100662.97;;;26.22;25.89
50852;BME280;43953;45.508;-122.806;2023-05-11T00:24:56;100664.13;;;26.21;25.47
50852;BME280;43953;45.508;-122.806;2023-05-11T00:25:27;100664.13;;;26.21;25.20
50852;BME280;43953;45.508;-122.806;2023-05-11T00:25:59;100656.94;;;26.20;25.25
50852;BME280;43953;45.508;-122.806;2023-05-11T00:26:31;100659.69;;;26.20;25.05
50852;BME280;43953;45.508;-122.806;2023-05-11T00:27:03;100660.84;;;26.19;25.13
50852;BME280;43953;45.508;-122.806;2023-05-11T00:27:34;100665.84;;;26.17;25.03
50852;BME280;43953;45.508;-122.806;2023-05-11T00:28:06;100663.09;;;26.17;25.36
50852;BME280;43953;45.508;-122.806;2023-05-11T00:28:38;100665.38;;;26.15;25.09
50852;BME280;43953;45.508;-122.806;2023-05-11T00:29:09;100662.09;;;26.13;25.03
50852;BME280;43953;45.508;-122.806;2023-05-11T00:29:41;100657.41;;;26.14;24.72
50852;BME280;43953;45.508;-122.806;2023-05-11T00:30:13;100662.41;;;26.12;25.09
50852;BME280;43953;45.508;-122.806;2023-05-11T00:30:48;100666.00;;;26.12;25.02
50852;BME280;43953;45.508;-122.806;2023-05-11T00:31:20;100663.53;;;26.10;25.03
50852;BME280;43953;45.508;-122.806;2023-05-11T00:31:51;100664.34;;;26.11;24.98
50852;BME280;43953;45.508;-122.806;2023-05-11T00:32:23;100669.88;;;26.11;24.90
50852;BME280;43953;45.508;-122.806;2023-05-11T00:32:55;100661.94;;;26.09;24.83
50852;BME280;43953;45.508;-122.806;2023-05-11T00:33:27;100664.97;;;26.08;25.13
50852;BME280;43953;45.508;-122.806;2023-05-11T00:33:58;100664.50;;;26.06;24.81
50852;BME280;43953;45.508;-122.806;2023-05-11T00:34:30;100667.25;;;26.06;25.06
50852;BME280;43953;45.508;-122.806;2023-05-11T00:35:02;100661.75;;;26.06;24.84
50852;BME280;43953;45.508;-122.806;2023-05-11T00:35:33;100661.75;;;26.06;24.95
50852;BME280;43953;45.508;-122.806;2023-05-11T00:36:05;100662.84;;;26.05;24.85
50852;BME280;43953;45.508;-122.806;2023-05-11T00:36:38;100660.09;;;26.05;24.68
50852;BME280;43953;45.508;-122.806;2023-05-11T00:37:10;100660.44;;;26.03;24.77
50852;BME280;43953;45.508;-122.806;2023-05-11T00:37:42;100662.34;;;26.03;25.12
50852;BME280;43953;45.508;-122.806;2023-05-11T00:38:14;100662.34;;;26.03;25.07
50852;BME280;43953;45.508;-122.806;2023-05-11T00:38:46;100660.72;;;26.02;25.14
50852;BME280;43953;45.508;-122.806;2023-05-11T00:39:17;100666.25;;;26.02;25.26
50852;BME280;43953;45.508;-122.806;2023-05-11T00:39:49;100665.44;;;26.01;25.62
50852;BME280;43953;45.508;-122.806;2023-05-11T00:40:21;100670.16;;;26.01;25.02
50852;BME280;43953;45.508;-122.806;2023-05-11T00:40:52;100670.16;;;26.01;25.58
50852;BME280;43953;45.508;-122.806;2023-05-11T00:41:24;100667.38;;;26.01;25.55
50852;BME280;43953;45.508;-122.806;2023-05-11T00:41:56;100666.56;;;26.00;25.32
50852;BME280;43953;45.508;-122.806;2023-05-11T00:42:27;100671.25;;;26.00;25.43
50852;BME280;43953;45.508;-122.806;2023-05-11T00:42:59;100671.25;;;26.00;25.72
50852;BME280;43953;45.508;-122.806;2023-05-11T00:43:31;100662.97;;;26.00;25.65
50852;BME280;43953;45.508;-122.806;2023-05-11T00:44:03;100668.00;;;25.98;25.48
50852;BME280;43953;45.508;-122.806;2023-05-11T00:44:34;100659.72;;;25.98;25.12
50852;BME280;43953;45.508;-122.806;2023-05-11T00:45:06;100671.06;;;25.96;25.84
50852;BME280;43953;45.508;-122.806;2023-05-11T00:45:38;100662.31;;;25.94;25.96
50852;BME280;43953;45.508;-122.806;2023-05-11T00:46:10;100662.63;;;25.93;25.44
50852;BME280;43953;45.508;-122.806;2023-05-11T00:46:42;100667.31;;;25.92;26.00
50852;BME280;43953;45.508;-122.806;2023-05-11T00:47:14;100673.13;;;25.91;25.75
50852;BME280;43953;45.508;-122.806;2023-05-11T00:47:46;100667.13;;;25.89;25.63
50852;BME280;43953;45.508;-122.806;2023-05-11T00:48:17;100669.06;;;25.88;25.40
50852;BME280;43953;45.508;-122.806;2023-05-11T00:48:49;100675.72;;;25.87;25.53
50852;BME280;43953;45.508;-122.806;2023-05-11T00:49:21;100676.03;;;25.85;25.38
50852;BME280;43953;45.508;-122.806;2023-05-11T00:49:54;100675.53;;;25.83;25.61
50852;BME280;43953;45.508;-122.806;2023-05-11T00:50:26;100669.47;;;25.81;25.73
50852;BME280;43953;45.508;-122.806;2023-05-11T00:50:58;100676.13;;;25.80;25.19
50852;BME280;43953;45.508;-122.806;2023-05-11T00:51:31;100671.75;;;25.79;25.68
50852;BME280;43953;45.508;-122.806;2023-05-11T00:52:03;100666.53;;;25.78;25.56
50852;BME280;43953;45.508;-122.806;2023-05-11T00:52:35;100674.00;;;25.77;25.56
50852;BME280;43953;45.508;-122.806;2023-05-11T00:53:07;100677.38;;;25.74;25.79
50852;BME280;43953;45.508;-122.806;2023-05-11T00:53:39;100674.91;;;25.73;26.01
50852;BME280;43953;45.508;-122.806;2023-05-11T00:54:11;100678.00;;;25.71;26.02
50852;BME280;43953;45.508;-122.806;2023-05-11T00:54:46;100674.72;;;25.69;25.96
50852;BME280;43953;45.508;-122.806;2023-05-11T00:55:19;100673.09;;;25.68;26.14
50852;BME280;43953;45.508;-122.806;2023-05-11T00:55:53;100672.59;;;25.66;25.88
50852;BME280;43953;45.508;-122.806;2023-05-11T00:56:25;100675.97;;;25.63;26.15
50852;BME280;43953;45.508;-122.806;2023-05-11T00:56:57;100675.16;;;25.62;25.98
50852;BME280;43953;45.508;-122.806;2023-05-11T00:57:28;100671.88;;;25.60;26.10
50852;BME280;43953;45.508;-122.806;2023-05-11T00:58:03;100676.09;;;25.58;25.74
50852;BME280;43953;45.508;-122.806;2023-05-11T00:58:38;100672.50;;;25.57;26.33
50852;BME280;43953;45.508;-122.806;2023-05-11T00:59:10;100675.59;;;25.56;26.06
50852;BME280;43953;45.508;-122.806;2023-05-11T00:59:43;100669.25;;;25.55;26.11
50852;BME280;43953;45.508;-122.806;2023-05-11T01:00:15;100669.56;;;25.54;26.23
50852;BME280;43953;45.508;-122.806;2023-05-11T01:00:47;100673.13;;;25.54;26.33
50852;BME280;43953;45.508;-122.806;2023-05-11T01:01:18;100669.56;;;25.54;26.09
50852;BME280;43953;45.508;-122.806;2023-05-11T01:01:50;100673.47;;;25.53;26.17
50852;BME280;43953;45.508;-122.806;2023-05-11T01:02:22;100675.09;;;25.54;26.67
50852;BME280;43953;45.508;-122.806;2023-05-11T01:02:54;100677.50;;;25.55;27.58
50852;BME280;43953;45.508;-122.806;2023-05-11T01:03:26;100674.75;;;25.55;27.55
50852;BME280;43953;45.508;-122.806;2023-05-11T01:03:58;100678.66;;;25.54;26.24
50852;BME280;43953;45.508;-122.806;2023-05-11T01:04:30;100677.03;;;25.53;26.18
50852;BME280;43953;45.508;-122.806;2023-05-11T01:05:02;100677.31;;;25.52;26.65
50852;BME280;43953;45.508;-122.806;2023-05-11T01:08:16;100671.44;;;25.45;27.14
50852;BME280;43953;45.508;-122.806;2023-05-11T01:10:45;100677.03;;;25.39;27.39
50852;BME280;43953;45.508;-122.806;2023-05-11T01:13:50;100672.25;;;25.31;26.38
50852;BME280;43953;45.508;-122.806;2023-05-11T01:14:41;100675.00;;;25.31;26.85
50852;BME280;43953;45.508;-122.806;2023-05-11T01:16:19;100673.06;;;25.32;27.64
50852;BME280;43953;45.508;-122.806;2023-05-11T01:16:56;100670.31;;;25.32;28.23
50852;BME280;43953;45.508;-122.806;2023-05-11T01:18:00;100677.78;;;25.31;27.93
50852;BME280;43953;45.508;-122.806;2023-05-11T01:18:42;100680.84;;;25.30;27.90
50852;BME280;43953;45.508;-122.806;2023-05-11T01:19:29;100674.00;;;25.27;27.92
50852;BME280;43953;45.508;-122.806;2023-05-11T01:20:10;100670.75;;;25.25;27.52
50852;BME280;43953;45.508;-122.806;2023-05-11T01:20:45;100680.16;;;25.24;28.17
50852;BME280;43953;45.508;-122.806;2023-05-11T01:21:18;100670.56;;;25.22;27.82
50852;BME280;43953;45.508;-122.806;2023-05-11T01:21:50;100676.06;;;25.22;27.50
50852;BME280;43953;45.508;-122.806;2023-05-11T01:27:55;100679.53;;;25.00;27.29
50852;BME280;43953;45.508;-122.806;2023-05-11T01:29:42;100677.88;;;24.98;27.95
50852;BME280;43953;45.508;-122.806;2023-05-11T01:31:09;100670.56;;;24.94;27.85
50852;BME280;43953;45.508;-122.806;2023-05-11T01:31:45;100673.78;;;24.96;27.62
50852;BME280;43953;45.508;-122.806;2023-05-11T01:32:21;100680.16;;;24.96;27.87
50852;BME280;43953;45.508;-122.806;2023-05-11T01:32:57;100680.97;;;24.97;27.83
50852;BME280;43953;45.508;-122.806;2023-05-11T01:33:31;100681.75;;;24.97;27.71
50852;BME280;43953;45.508;-122.806;2023-05-11T01:34:16;100674.63;;;24.96;28.11
50852;BME280;43953;45.508;-122.806;2023-05-11T01:34:59;100674.63;;;24.96;27.80
50852;BME280;43953;45.508;-122.806;2023-05-11T01:35:38;100675.44;;;24.97;27.88
50852;BME280;43953;45.508;-122.806;2023-05-11T01:36:12;100673.50;;;24.97;27.98
50852;BME280;43953;45.508;-122.806;2023-05-11T01:37:11;100670.75;;;24.97;28.37
50852;BME280;43953;45.508;-122.806;2023-05-11T01:37:50;100672.38;;;24.98;28.22
50852;BME280;43953;45.508;-122.806;2023-05-11T01:38:24;100669.63;;;24.98;28.25
50852;BME280;43953;45.508;-122.806;2023-05-11T01:39:07;100674.03;;;25.00;28.49
50852;BME280;43953;45.508;-122.806;2023-05-11T01:39:56;100667.66;;;24.99;28.81
50852;BME280;43953;45.508;-122.806;2023-05-11T01:40:31;100653.59;;;25.01;28.50
50852;BME280;43953;45.508;-122.806;2023-05-11T01:41:10;100655.22;;;25.02;28.63
50852;BME280;43953;45.508;-122.806;2023-05-11T01:41:44;100666.75;;;25.04;29.09
50852;BME280;43953;45.508;-122.806;2023-05-11T01:42:35;100683.28;;;25.04;29.25
50852;BME280;43953;45.508;-122.806;2023-05-11T01:43:12;100680.53;;;25.04;28.93
50852;BME280;43953;45.508;-122.806;2023-05-11T01:43:48;100695.13;;;25.04;28.67
50852;BME280;43953;45.508;-122.806;2023-05-11T01:44:24;100690.75;;;25.03;28.83
50852;BME280;43953;45.508;-122.806;2023-05-11T01:44:58;100687.19;;;25.03;28.79
50852;BME280;43953;45.508;-122.806;2023-05-11T01:45:33;100689.94;;;25.03;28.99
50852;BME280;43953;45.508;-122.806;2023-05-11T01:46:08;100682.78;;;25.02;29.34
50852;BME280;43953;45.508;-122.806;2023-05-11T01:46:40;100686.34;;;25.02;29.38
50852;BME280;43953;45.508;-122.806;2023-05-11T01:47:12;100683.59;;;25.02;29.51
50852;BME280;43953;45.508;-122.806;2023-05-11T01:47:47;100682.78;;;25.02;29.43
50852;BME280;43953;45.508;-122.806;2023-05-11T01:48:24;100685.53;;;25.02;29.64
50852;BME280;43953;45.508;-122.806;2023-05-11T01:48:57;100680.84;;;25.02;29.80
50852;BME280;43953;45.508;-122.806;2023-05-11T01:49:33;100689.09;;;25.02;30.04
50852;BME280;43953;45.508;-122.806;2023-05-11T01:50:07;100684.72;;;25.01;30.10
50852;BME280;43953;45.508;-122.806;2023-05-11T01:50:40;100692.69;;;25.03;30.40
50852;BME280;43953;45.508;-122.806;2023-05-11T01:51:14;100694.59;;;25.02;30.68
50852;BME280;43953;45.508;-122.806;2023-05-11T01:51:48;100700.94;;;25.03;30.82
50852;BME280;43953;45.508;-122.806;2023-05-11T01:52:23;100696.53;;;25.02;30.76
50852;BME280;43953;45.508;-122.806;2023-05-11T01:52:56;100694.59;;;25.02;30.66
50852;BME280;43953;45.508;-122.806;2023-05-11T01:53:33;100702.88;;;25.02;30.82
50852;BME280;43953;45.508;-122.806;2023-05-11T01:54:09;100692.16;;;25.01;30.72
50852;BME280;43953;45.508;-122.806;2023-05-11T01:54:43;100699.63;;;25.00;30.49
50852;BME280;43953;45.508;-122.806;2023-05-11T01:55:19;100698.28;;;24.97;31.47
50852;BME280;43953;45.508;-122.806;2023-05-11T01:55:53;100695.81;;;24.96;31.87
50852;BME280;43953;45.508;-122.806;2023-05-11T01:56:27;100704.41;;;24.94;31.65
50852;BME280;43953;45.508;-122.806;2023-05-11T01:57:00;100700.00;;;24.93;32.13
50852;BME280;43953;45.508;-122.806;2023-05-11T01:57:33;100701.94;;;24.93;32.02
50852;BME280;43953;45.508;-122.806;2023-05-11T01:58:08;100698.72;;;24.91;32.19
50852;BME280;43953;45.508;-122.806;2023-05-11T01:58:41;100693.50;;;24.89;31.90
50852;BME280;43953;45.508;-122.806;2023-05-11T01:59:15;100700.94;;;24.89;32.64
50852;BME280;43953;45.508;-122.806;2023-05-11T01:59:49;100695.72;;;24.87;32.42
50852;BME280;43953;45.508;-122.806;2023-05-11T02:00:22;100692.16;;;24.87;32.82
50852;BME280;43953;45.508;-122.806;2023-05-11T02:00:55;100703.16;;;24.87;32.69
50852;BME280;43953;45.508;-122.806;2023-05-11T02:01:30;100705.44;;;24.85;33.12
50852;BME280;43953;45.508;-122.806;2023-05-11T02:02:06;100700.75;;;24.85;32.86
50852;BME280;43953;45.508;-122.806;2023-05-11T02:02:40;100704.59;;;24.84;33.13
50852;BME280;43953;45.508;-122.806;2023-05-11T02:03:13;100702.97;;;24.83;33.14
50852;BME280;43953;45.508;-122.806;2023-05-11T02:03:46;100702.97;;;24.83;33.49
50852;BME280;43953;45.508;-122.806;2023-05-11T02:04:21;100702.97;;;24.83;32.99
50852;BME280;43953;45.508;-122.806;2023-05-11T02:04:54;100708.47;;;24.83;33.20
50852;BME280;43953;45.508;-122.806;2023-05-11T02:05:28;100701.97;;;24.79;33.33
50852;BME280;43953;45.508;-122.806;2023-05-11T02:06:03;100710.72;;;24.81;33.28
50852;BME280;43953;45.508;-122.806;2023-05-11T02:06:34;100709.09;;;24.80;33.36
50852;BME280;43953;45.508;-122.806;2023-05-11T02:07:10;100703.59;;;24.80;34.21
50852;BME280;43953;45.508;-122.806;2023-05-11T02:07:44;100703.59;;;24.80;34.14
50852;BME280;43953;45.508;-122.806;2023-05-11T02:08:18;100712.97;;;24.79;34.53
50852;BME280;43953;45.508;-122.806;2023-05-11T02:08:51;100709.09;;;24.80;34.61
50852;BME280;43953;45.508;-122.806;2023-05-11T02:09:24;100713.78;;;24.80;34.73
50852;BME280;43953;45.508;-122.806;2023-05-11T02:09:57;100714.59;;;24.80;34.44
50852;BME280;43953;45.508;-122.806;2023-05-11T02:10:29;100718.47;;;24.79;34.82
50852;BME280;43953;45.508;-122.806;2023-05-11T02:11:03;100712.13;;;24.79;35.04
50852;BME280;43953;45.508;-122.806;2023-05-11T02:11:37;100711.31;;;24.78;34.74
50852;BME280;43953;45.508;-122.806;2023-05-11T02:12:11;100710.50;;;24.78;34.71
50852;BME280;43953;45.508;-122.806;2023-05-11T02:12:44;100707.75;;;24.78;34.64
50852;BME280;43953;45.508;-122.806;2023-05-11T02:13:18;100710.84;;;24.76;34.77
50852;BME280;43953;45.508;-122.806;2023-05-11T02:13:51;100708.06;;;24.76;34.72
50852;BME280;43953;45.508;-122.806;2023-05-11T02:14:24;100711.94;;;24.75;34.79
50852;BME280;43953;45.508;-122.806;2023-05-11T02:14:59;100713.06;;;24.74;34.29
50852;BME280;43953;45.508;-122.806;2023-05-11T02:15:33;100711.44;;;24.73;34.43
50852;BME280;43953;45.508;-122.806;2023-05-11T02:16:08;100716.09;;;24.72;34.37
50852;BME280;43953;45.508;-122.806;2023-05-11T02:16:41;100717.25;;;24.71;34.37
50852;BME280;43953;45.508;-122.806;2023-05-11T02:17:15;100711.53;;;24.68;34.75
50852;BME280;43953;45.508;-122.806;2023-05-11T02:17:48;100722.53;;;24.68;34.32
50852;BME280;43953;45.508;-122.806;2023-05-11T02:18:20;100717.03;;;24.68;34.46
50852;BME280;43953;45.508;-122.806;2023-05-11T02:18:52;100712.94;;;24.65;34.61
50852;BME280;43953;45.508;-122.806;2023-05-11T02:19:26;100721.50;;;24.64;34.52
50852;BME280;43953;45.508;-122.806;2023-05-11T02:20:00;100716.59;;;24.61;34.41
50852;BME280;43953;45.508;-122.806;2023-05-11T02:20:35;100729.06;;;24.58;34.41
50852;BME280;43953;45.508;-122.806;2023-05-11T02:21:08;100719.47;;;24.56;34.30
50852;BME280;43953;45.508;-122.806;2023-05-11T02:21:42;100724.72;;;24.52;34.68
50852;BME280;43953;45.508;-122.806;2023-05-11T02:22:14;100718.41;;;24.51;34.67
50852;BME280;43953;45.508;-122.806;2023-05-11T02:22:48;100721.50;;;24.50;34.90
50852;BME280;43953;45.508;-122.806;2023-05-11T02:23:20;100722.09;;;24.47;34.75
50852;BME280;43953;45.508;-122.806;2023-05-11T02:23:54;100716.88;;;24.45;34.67
50852;BME280;43953;45.508;-122.806;2023-05-11T02:24:29;100727.06;;;24.45;34.85
50852;BME280;43953;45.508;-122.806;2023-05-11T02:25:02;100715.81;;;24.41;34.98
50852;BME280;43953;45.508;-122.806;2023-05-11T02:25:36;100718.56;;;24.41;35.03
50852;BME280;43953;45.508;-122.806;2023-05-11T02:26:10;100729.59;;;24.41;34.72
50852;BME280;43953;45.508;-122.806;2023-05-11T02:26:43;100726.84;;;24.41;34.57
50852;BME280;43953;45.508;-122.806;2023-05-11T02:27:14;100727.97;;;24.40;34.71
50852;BME280;43953;45.508;-122.806;2023-05-11T02:27:46;100727.97;;;24.40;34.99
50852;BME280;43953;45.508;-122.806;2023-05-11T02:28:18;100727.97;;;24.40;34.75
50852;BME280;43953;45.508;-122.806;2023-05-11T02:28:50;100726.31;;;24.39;35.15
50852;BME280;43953;45.508;-122.806;2023-05-11T02:29:22;100735.69;;;24.38;34.86
50852;BME280;43953;45.508;-122.806;2023-05-11T02:29:53;100724.47;;;24.35;35.20
50852;BME280;43953;45.508;-122.806;2023-05-11T02:30:27;100729.97;;;24.35;34.84
50852;BME280;43953;45.508;-122.806;2023-05-11T02:31:06;100737.41;;;24.34;34.90
50852;BME280;43953;45.508;-122.806;2023-05-11T02:31:43;100733.03;;;24.33;34.89
50852;BME280;43953;45.508;-122.806;2023-05-11T02:32:17;100734.75;;;24.29;35.12
50852;BME280;43953;45.508;-122.806;2023-05-11T02:32:51;100733.09;;;24.28;35.23
50852;BME280;43953;45.508;-122.806;2023-05-11T02:33:30;100740.31;;;24.24;35.04
50852;BME280;43953;45.508;-122.806;2023-05-11T02:34:08;100735.44;;;24.21;35.19
50852;BME280;43953;45.508;-122.806;2023-05-11T02:35:01;100740.72;;;24.17;35.50
50852;BME280;43953;45.508;-122.806;2023-05-11T02:35:38;100742.94;;;24.15;35.23
50852;BME280;43953;45.508;-122.806;2023-05-11T02:36:19;100741.59;;;24.13;35.20
50852;BME280;43953;45.508;-122.806;2023-05-11T02:36:54;100752.06;;;24.11;35.18
50852;BME280;43953;45.508;-122.806;2023-05-11T02:37:27;100746.88;;;24.09;35.26
50852;BME280;43953;45.508;-122.806;2023-05-11T02:38:01;100752.66;;;24.07;35.26
50852;BME280;43953;45.508;-122.806;2023-05-11T02:38:34;100748.63;;;24.05;35.45
50852;BME280;43953;45.508;-122.806;2023-05-11T02:39:08;100753.28;;;24.04;35.53
50852;BME280;43953;45.508;-122.806;2023-05-11T02:39:45;100757.16;;;24.03;35.63
50852;BME280;43953;45.508;-122.806;2023-05-11T02:40:27;100758.56;;;24.01;35.95
50852;BME280;43953;45.508;-122.806;2023-05-11T02:41:03;100752.56;;;23.99;35.69
50852;BME280;43953;45.508;-122.806;2023-05-11T02:41:41;100757.53;;;23.97;35.71
50852;BME280;43953;45.508;-122.806;2023-05-11T02:42:18;100755.06;;;23.95;35.74
50852;BME280;43953;45.508;-122.806;2023-05-11T02:42:56;100749.06;;;23.93;35.42
50852;BME280;43953;45.508;-122.806;2023-05-11T02:43:32;100758.41;;;23.92;35.70
50852;BME280;43953;45.508;-122.806;2023-05-11T02:44:06;100757.91;;;23.90;35.93
50852;BME280;43953;45.508;-122.806;2023-05-11T02:44:47;100763.41;;;23.90;35.84
50852;BME280;43953;45.508;-122.806;2023-05-11T02:45:21;100755.75;;;23.87;35.92
50852;BME280;43953;45.508;-122.806;2023-05-11T02:45:59;100759.59;;;23.86;35.84
50852;BME280;43953;45.508;-122.806;2023-05-11T02:46:34;100763.47;;;23.85;36.02
50852;BME280;43953;45.508;-122.806;2023-05-11T02:47:11;100762.94;;;23.83;36.07
50852;BME280;43953;45.508;-122.806;2023-05-11T02:47:51;100767.63;;;23.82;36.41
50852;BME280;43953;45.508;-122.806;2023-05-11T02:48:26;100763.25;;;23.81;36.15
50852;BME280;43953;45.508;-122.806;2023-05-11T02:49:00;100769.84;;;23.80;36.13
50852;BME280;43953;45.508;-122.806;2023-05-11T02:49:35;100761.09;;;23.78;36.33
50852;BME280;43953;45.508;-122.806;2023-05-11T02:50:08;100764.13;;;23.77;36.21
50852;BME280;43953;45.508;-122.806;2023-05-11T02:50:40;100768.81;;;23.76;36.46
50852;BME280;43953;45.508;-122.806;2023-05-11T02:51:16;100769.09;;;23.75;36.27
50852;BME280;43953;45.508;-122.806;2023-05-11T02:51:49;100766.34;;;23.75;36.54
50852;BME280;43953;45.508;-122.806;2023-05-11T02:52:24;100772.97;;;23.74;36.39
50852;BME280;43953;45.508;-122.806;2023-05-11T02:53:01;100772.44;;;23.72;36.71
50852;BME280;43953;45.508;-122.806;2023-05-11T02:53:39;100771.63;;;23.71;36.37
50852;BME280;43953;45.508;-122.806;2023-05-11T02:54:12;100776.31;;;23.71;36.55
50852;BME280;43953;45.508;-122.806;2023-05-11T02:54:48;100774.94;;;23.68;36.84
50852;BME280;43953;45.508;-122.806;2023-05-11T02:55:21;100773.31;;;23.67;36.93
50852;BME280;43953;45.508;-122.806;2023-05-11T02:55:54;100771.66;;;23.66;36.57
50852;BME280;43953;45.508;-122.806;2023-05-11T02:56:26;100774.72;;;23.65;37.41
50852;BME280;43953;45.508;-122.806;2023-05-11T02:56:58;100771.97;;;23.65;37.38
50852;BME280;43953;45.508;-122.806;2023-05-11T02:57:30;100776.66;;;23.64;37.88
50852;BME280;43953;45.508;-122.806;2023-05-11T02:58:02;100782.44;;;23.62;38.38
50852;BME280;43953;45.508;-122.806;2023-05-11T02:58:34;100781.34;;;23.64;38.34
50852;BME280;43953;45.508;-122.806;2023-05-11T02:59:06;100779.69;;;23.62;38.41
50852;BME280;43953;45.508;-122.806;2023-05-11T02:59:38;100780.81;;;23.61;38.35
50852;BME280;43953;45.508;-122.806;2023-05-11T03:00:10;100778.34;;;23.60;38.29
50852;BME280;43953;45.508;-122.806;2023-05-11T03:00:43;100784.97;;;23.59;38.23
50852;BME280;43953;45.508;-122.806;2023-05-11T03:01:16;100788.00;;;23.57;38.44
50852;BME280;43953;45.508;-122.806;2023-05-11T03:01:48;100793.50;;;23.57;38.58
50852;BME280;43953;45.508;-122.806;2023-05-11T03:02:19;100785.25;;;23.57;38.48
50852;BME280;43953;45.508;-122.806;2023-05-11T03:02:51;100791.84;;;23.56;38.79
50852;BME280;43953;45.508;-122.806;2023-05-11T03:03:23;100784.72;;;23.55;38.88
50852;BME280;43953;45.508;-122.806;2023-05-11T03:03:55;100786.13;;;23.53;38.94
50852;BME280;43953;45.508;-122.806;2023-05-11T03:04:27;100794.66;;;23.51;38.96
50852;BME280;43953;45.508;-122.806;2023-05-11T03:04:59;100788.66;;;23.49;38.86
50852;BME280;43953;45.508;-122.806;2023-05-11T03:05:31;100799.13;;;23.47;38.63
50852;BME280;43953;45.508;-122.806;2023-05-11T03:06:03;100797.50;;;23.46;39.01
50852;BME280;43953;45.508;-122.806;2023-05-11T03:06:35;100803.56;;;23.43;38.86